sensor_id;sensor_type;location;lat;lon;timestamp;temperature;humidity
1083;DHT22;530;51.448;7.238;2024-02-21T00:00:48;9.70;99.90
1083;DHT22;530;51.448;7.238;2024-02-21T00:03:13;9.70;99.90
1083;DHT22;530;51.448;7.238;2024-02-21T00:05:39;9.80;99.90
1083;DHT22;530;51.448;7.238;2024-02-21T00:08:05;9.70;99.90
1083;DHT22;530;51.448;7.238;2024-02-21T00:10:31;9.70;99.90
1083;DHT22;530;51.448;7.238;2024-02-21T00:12:58;9.70;99.90
1083;DHT22;530;51.448;7.238;2024-02-21T00:15:25;9.80;99.90
1083;DHT22;530;51.448;7.238;2024-02-21T00:17:51;9.80;99.90
1083;DHT22;530;51.448;7.238;2024-02-21T00:20:17;9.70;99.90
1083;DHT22;530;51.448;7.238;2024-02-21T00:22:46;9.70;99.90
1083;DHT22;530;51.448;7.238;2024-02-21T00:25:12;9.70;99.90
1083;DHT22;530;51.448;7.238;2024-02-21T00:27:38;9.80;99.90
1083;DHT22;530;51.448;7.238;2024-02-21T00:30:05;9.80;99.90
1083;DHT22;530;51.448;7.238;2024-02-21T00:32:31;9.80;99.90
1083;DHT22;530;51.448;7.238;2024-02-21T00:34:59;9.80;99.90
1083;DHT22;530;51.448;7.238;2024-02-21T00:37:25;9.80;99.90
1083;DHT22;530;51.448;7.238;2024-02-21T00:39:51;9.80;99.90
1083;DHT22;530;51.448;7.238;2024-02-21T00:42:16;9.70;99.90
1083;DHT22;530;51.448;7.238;2024-02-21T00:44:42;9.70;99.90
1083;DHT22;530;51.448;7.238;2024-02-21T00:47:08;9.80;99.90
1083;DHT22;530;51.448;7.238;2024-02-21T00:49:33;9.80;99.90
1083;DHT22;530;51.448;7.238;2024-02-21T00:51:59;9.80;99.90
1083;DHT22;530;51.448;7.238;2024-02-21T00:54:25;9.80;99.90
1083;DHT22;530;51.448;7.238;2024-02-21T00:56:50;9.80;99.90
1083;DHT22;530;51.448;7.238;2024-02-21T00:59:16;9.80;99.90
1083;DHT22;530;51.448;7.238;2024-02-21T01:01:42;9.80;99.90
1083;DHT22;530;51.448;7.238;2024-02-21T01:04:09;9.80;99.90
1083;DHT22;530;51.448;7.238;2024-02-21T01:06:34;9.80;99.90
1083;DHT22;530;51.448;7.238;2024-02-21T01:09:00;9.80;99.90
1083;DHT22;530;51.448;7.238;2024-02-21T01:11:26;9.80;99.90
1083;DHT22;530;51.448;7.238;2024-02-21T01:13:53;9.80;99.90
1083;DHT22;530;51.448;7.238;2024-02-21T01:16:18;9.80;99.90
1083;DHT22;530;51.448;7.238;2024-02-21T01:18:44;9.80;99.90
1083;DHT22;530;51.448;7.238;2024-02-21T01:21:10;9.80;99.90
1083;DHT22;530;51.448;7.238;2024-02-21T01:23:36;9.80;99.90
1083;DHT22;530;51.448;7.238;2024-02-21T01:26:03;9.80;99.90
1083;DHT22;530;51.448;7.238;2024-02-21T01:28:29;9.80;99.90
1083;DHT22;530;51.448;7.238;2024-02-21T01:30:56;9.80;99.90
1083;DHT22;530;51.448;7.238;2024-02-21T01:33:22;9.80;99.90
1083;DHT22;530;51.448;7.238;2024-02-21T01:35:48;9.80;99.90
1083;DHT22;530;51.448;7.238;2024-02-21T01:38:15;9.80;99.90
1083;DHT22;530;51.448;7.238;2024-02-21T01:40:41;9.80;99.90
1083;DHT22;530;51.448;7.238;2024-02-21T01:43:16;9.80;99.90
1083;DHT22;530;51.448;7.238;2024-02-21T01:45:45;9.70;99.90
1083;DHT22;530;51.448;7.238;2024-02-21T01:48:12;9.80;99.90
1083;DHT22;530;51.448;7.238;2024-02-21T01:50:38;9.80;99.90
1083;DHT22;530;51.448;7.238;2024-02-21T01:53:04;9.70;99.90
1083;DHT22;530;51.448;7.238;2024-02-21T01:55:30;9.80;99.90
1083;DHT22;530;51.448;7.238;2024-02-21T01:57:56;9.70;99.90
1083;DHT22;530;51.448;7.238;2024-02-21T02:00:23;9.70;99.90
1083;DHT22;530;51.448;7.238;2024-02-21T02:02:49;9.80;99.90
1083;DHT22;530;51.448;7.238;2024-02-21T02:05:16;9.70;99.90
1083;DHT22;530;51.448;7.238;2024-02-21T02:07:42;9.70;99.90
1083;DHT22;530;51.448;7.238;2024-02-21T02:10:08;9.70;99.90
1083;DHT22;530;51.448;7.238;2024-02-21T02:12:35;9.70;99.90
1083;DHT22;530;51.448;7.238;2024-02-21T02:15:02;9.70;99.90
1083;DHT22;530;51.448;7.238;2024-02-21T02:17:30;9.70;99.90
1083;DHT22;530;51.448;7.238;2024-02-21T02:19:56;9.70;99.90
1083;DHT22;530;51.448;7.238;2024-02-21T02:22:28;9.70;99.90
1083;DHT22;530;51.448;7.238;2024-02-21T02:24:55;9.70;99.90
1083;DHT22;530;51.448;7.238;2024-02-21T02:27:21;9.70;99.90
1083;DHT22;530;51.448;7.238;2024-02-21T02:29:48;9.70;99.90
1083;DHT22;530;51.448;7.238;2024-02-21T02:32:14;9.70;99.90
1083;DHT22;530;51.448;7.238;2024-02-21T02:34:40;9.70;99.90
1083;DHT22;530;51.448;7.238;2024-02-21T02:37:05;9.70;99.90
1083;DHT22;530;51.448;7.238;2024-02-21T02:39:31;9.70;99.90
1083;DHT22;530;51.448;7.238;2024-02-21T02:41:57;9.70;99.90
1083;DHT22;530;51.448;7.238;2024-02-21T02:44:22;9.70;99.90
1083;DHT22;530;51.448;7.238;2024-02-21T02:46:48;9.70;99.90
1083;DHT22;530;51.448;7.238;2024-02-21T02:49:14;9.70;99.90
1083;DHT22;530;51.448;7.238;2024-02-21T02:51:43;9.70;99.90
1083;DHT22;530;51.448;7.238;2024-02-21T02:54:09;9.70;99.90
1083;DHT22;530;51.448;7.238;2024-02-21T02:56:35;9.70;99.90
1083;DHT22;530;51.448;7.238;2024-02-21T02:59:00;9.60;99.90
1083;DHT22;530;51.448;7.238;2024-02-21T03:01:26;9.60;99.90
1083;DHT22;530;51.448;7.238;2024-02-21T03:03:53;9.60;99.90
1083;DHT22;530;51.448;7.238;2024-02-21T03:06:19;9.60;99.90
1083;DHT22;530;51.448;7.238;2024-02-21T03:08:44;9.60;99.90
1083;DHT22;530;51.448;7.238;2024-02-21T03:11:10;9.70;99.90
1083;DHT22;530;51.448;7.238;2024-02-21T03:13:36;9.60;99.90
1083;DHT22;530;51.448;7.238;2024-02-21T03:16:02;9.60;99.90
1083;DHT22;530;51.448;7.238;2024-02-21T03:18:28;9.60;99.90
1083;DHT22;530;51.448;7.238;2024-02-21T03:20:53;9.60;99.90
1083;DHT22;530;51.448;7.238;2024-02-21T03:23:19;9.60;99.90
1083;DHT22;530;51.448;7.238;2024-02-21T03:25:45;9.60;99.90
1083;DHT22;530;51.448;7.238;2024-02-21T03:28:11;9.60;99.90
1083;DHT22;530;51.448;7.238;2024-02-21T03:30:37;9.60;99.90
1083;DHT22;530;51.448;7.238;2024-02-21T03:33:03;9.60;99.90
1083;DHT22;530;51.448;7.238;2024-02-21T03:35:28;9.60;99.90
1083;DHT22;530;51.448;7.238;2024-02-21T03:37:54;9.60;99.90
1083;DHT22;530;51.448;7.238;2024-02-21T03:40:20;9.60;99.90
1083;DHT22;530;51.448;7.238;2024-02-21T03:42:46;9.60;99.90
1083;DHT22;530;51.448;7.238;2024-02-21T03:45:11;9.60;99.90
1083;DHT22;530;51.448;7.238;2024-02-21T03:47:37;9.60;99.90
1083;DHT22;530;51.448;7.238;2024-02-21T03:50:04;9.60;99.90
1083;DHT22;530;51.448;7.238;2024-02-21T03:52:31;9.60;99.90
1083;DHT22;530;51.448;7.238;2024-02-21T03:54:57;9.60;99.90
1083;DHT22;530;51.448;7.238;2024-02-21T03:57:22;9.60;99.90
1083;DHT22;530;51.448;7.238;2024-02-21T03:59:51;9.60;99.90
1083;DHT22;530;51.448;7.238;2024-02-21T04:02:17;9.60;99.90
1083;DHT22;530;51.448;7.238;2024-02-21T04:04:44;9.50;99.90
1083;DHT22;530;51.448;7.238;2024-02-21T04:07:13;9.60;99.90
1083;DHT22;530;51.448;7.238;2024-02-21T04:09:38;9.60;99.90
1083;DHT22;530;51.448;7.238;2024-02-21T04:12:05;9.60;99.90
1083;DHT22;530;51.448;7.238;2024-02-21T04:14:31;9.60;99.90
1083;DHT22;530;51.448;7.238;2024-02-21T04:16:57;9.60;99.90
1083;DHT22;530;51.448;7.238;2024-02-21T04:19:22;9.60;99.90
1083;DHT22;530;51.448;7.238;2024-02-21T04:21:48;9.60;99.90
1083;DHT22;530;51.448;7.238;2024-02-21T04:24:14;9.60;99.90
1083;DHT22;530;51.448;7.238;2024-02-21T04:26:40;9.60;99.90
1083;DHT22;530;51.448;7.238;2024-02-21T04:29:06;9.70;99.90
1083;DHT22;530;51.448;7.238;2024-02-21T04:31:34;9.60;99.90
1083;DHT22;530;51.448;7.238;2024-02-21T04:34:00;9.60;99.90
1083;DHT22;530;51.448;7.238;2024-02-21T04:36:26;9.60;99.90
1083;DHT22;530;51.448;7.238;2024-02-21T04:38:51;9.60;99.90
1083;DHT22;530;51.448;7.238;2024-02-21T04:41:17;9.60;99.90
1083;DHT22;530;51.448;7.238;2024-02-21T04:43:43;9.70;99.90
1083;DHT22;530;51.448;7.238;2024-02-21T04:46:08;9.70;99.90
1083;DHT22;530;51.448;7.238;2024-02-21T04:48:35;9.70;99.90
1083;DHT22;530;51.448;7.238;2024-02-21T04:51:00;9.60;99.90
1083;DHT22;530;51.448;7.238;2024-02-21T04:53:26;9.60;99.90
1083;DHT22;530;51.448;7.238;2024-02-21T04:55:52;9.60;99.90
1083;DHT22;530;51.448;7.238;2024-02-21T04:58:18;9.60;99.90
1083;DHT22;530;51.448;7.238;2024-02-21T05:00:43;9.60;99.90
1083;DHT22;530;51.448;7.238;2024-02-21T05:03:09;9.70;99.90
1083;DHT22;530;51.448;7.238;2024-02-21T05:05:34;9.60;99.90
1083;DHT22;530;51.448;7.238;2024-02-21T05:08:01;9.60;99.90
1083;DHT22;530;51.448;7.238;2024-02-21T05:10:27;9.60;99.90
1083;DHT22;530;51.448;7.238;2024-02-21T05:12:52;9.60;99.90
1083;DHT22;530;51.448;7.238;2024-02-21T05:15:18;9.60;99.90
1083;DHT22;530;51.448;7.238;2024-02-21T05:17:44;9.60;99.90
1083;DHT22;530;51.448;7.238;2024-02-21T05:20:10;9.70;99.90
1083;DHT22;530;51.448;7.238;2024-02-21T05:22:36;9.70;99.90
1083;DHT22;530;51.448;7.238;2024-02-21T05:25:01;9.70;99.90
1083;DHT22;530;51.448;7.238;2024-02-21T05:27:27;9.60;99.90
1083;DHT22;530;51.448;7.238;2024-02-21T05:29:53;9.60;99.90
1083;DHT22;530;51.448;7.238;2024-02-21T05:32:19;9.60;99.90
1083;DHT22;530;51.448;7.238;2024-02-21T05:34:48;9.60;99.90
1083;DHT22;530;51.448;7.238;2024-02-21T05:37:15;9.70;99.90
1083;DHT22;530;51.448;7.238;2024-02-21T05:39:41;9.60;99.90
1083;DHT22;530;51.448;7.238;2024-02-21T05:42:06;9.60;99.90
1083;DHT22;530;51.448;7.238;2024-02-21T05:44:32;9.60;99.90
1083;DHT22;530;51.448;7.238;2024-02-21T05:46:58;9.60;99.90
1083;DHT22;530;51.448;7.238;2024-02-21T05:49:23;9.60;99.90
1083;DHT22;530;51.448;7.238;2024-02-21T05:51:49;9.60;99.90
1083;DHT22;530;51.448;7.238;2024-02-21T05:54:15;9.60;99.90
1083;DHT22;530;51.448;7.238;2024-02-21T05:56:47;9.50;99.90
1083;DHT22;530;51.448;7.238;2024-02-21T05:59:12;9.60;99.90
1083;DHT22;530;51.448;7.238;2024-02-21T06:01:38;9.50;99.90
1083;DHT22;530;51.448;7.238;2024-02-21T06:04:04;9.60;99.90
1083;DHT22;530;51.448;7.238;2024-02-21T06:06:30;9.60;99.90
1083;DHT22;530;51.448;7.238;2024-02-21T06:08:56;9.60;99.90
1083;DHT22;530;51.448;7.238;2024-02-21T06:11:24;9.60;99.90
1083;DHT22;530;51.448;7.238;2024-02-21T06:13:49;9.60;99.90
1083;DHT22;530;51.448;7.238;2024-02-21T06:16:15;9.60;99.90
1083;DHT22;530;51.448;7.238;2024-02-21T06:18:41;9.60;99.90
1083;DHT22;530;51.448;7.238;2024-02-21T06:21:07;9.60;99.90
1083;DHT22;530;51.448;7.238;2024-02-21T06:23:32;9.60;99.90
1083;DHT22;530;51.448;7.238;2024-02-21T06:25:58;9.60;99.90
1083;DHT22;530;51.448;7.238;2024-02-21T06:28:24;9.60;99.90
1083;DHT22;530;51.448;7.238;2024-02-21T06:30:49;9.60;99.90
1083;DHT22;530;51.448;7.238;2024-02-21T06:33:15;9.60;99.90
1083;DHT22;530;51.448;7.238;2024-02-21T06:35:41;9.60;99.90
1083;DHT22;530;51.448;7.238;2024-02-21T06:38:08;9.60;99.90
1083;DHT22;530;51.448;7.238;2024-02-21T06:40:33;9.60;99.90
1083;DHT22;530;51.448;7.238;2024-02-21T06:43:04;9.60;99.90
1083;DHT22;530;51.448;7.238;2024-02-21T06:45:30;9.60;99.90
1083;DHT22;530;51.448;7.238;2024-02-21T06:47:56;9.60;99.90
1083;DHT22;530;51.448;7.238;2024-02-21T06:50:21;9.60;99.90
1083;DHT22;530;51.448;7.238;2024-02-21T06:52:47;9.60;99.90
1083;DHT22;530;51.448;7.238;2024-02-21T06:55:13;9.60;99.90
1083;DHT22;530;51.448;7.238;2024-02-21T06:57:38;9.60;99.90
1083;DHT22;530;51.448;7.238;2024-02-21T07:00:05;9.60;99.90
1083;DHT22;530;51.448;7.238;2024-02-21T07:02:34;9.60;99.90
1083;DHT22;530;51.448;7.238;2024-02-21T07:05:00;9.60;99.90
1083;DHT22;530;51.448;7.238;2024-02-21T07:07:25;9.60;99.90
1083;DHT22;530;51.448;7.238;2024-02-21T07:09:51;9.60;99.90
1083;DHT22;530;51.448;7.238;2024-02-21T07:12:18;9.60;99.90
1083;DHT22;530;51.448;7.238;2024-02-21T07:14:44;9.60;99.90
1083;DHT22;530;51.448;7.238;2024-02-21T07:17:10;9.60;99.90
1083;DHT22;530;51.448;7.238;2024-02-21T07:19:36;9.70;99.90
1083;DHT22;530;51.448;7.238;2024-02-21T07:22:01;9.70;99.90
1083;DHT22;530;51.448;7.238;2024-02-21T07:24:27;9.60;99.90
1083;DHT22;530;51.448;7.238;2024-02-21T07:26:53;9.60;99.90
1083;DHT22;530;51.448;7.238;2024-02-21T07:29:19;9.60;99.90
1083;DHT22;530;51.448;7.238;2024-02-21T07:31:45;9.60;99.90
1083;DHT22;530;51.448;7.238;2024-02-21T07:34:10;9.60;99.90
1083;DHT22;530;51.448;7.238;2024-02-21T07:36:36;9.60;99.90
1083;DHT22;530;51.448;7.238;2024-02-21T07:39:05;9.60;99.90
1083;DHT22;530;51.448;7.238;2024-02-21T07:41:31;9.60;99.90
1083;DHT22;530;51.448;7.238;2024-02-21T07:43:57;9.60;99.90
1083;DHT22;530;51.448;7.238;2024-02-21T07:46:23;9.70;99.90
1083;DHT22;530;51.448;7.238;2024-02-21T07:48:49;9.70;99.90
1083;DHT22;530;51.448;7.238;2024-02-21T07:51:15;9.70;99.90
1083;DHT22;530;51.448;7.238;2024-02-21T07:53:43;9.80;99.90
1083;DHT22;530;51.448;7.238;2024-02-21T07:56:11;9.80;99.90
1083;DHT22;530;51.448;7.238;2024-02-21T07:58:37;9.80;99.90
1083;DHT22;530;51.448;7.238;2024-02-21T08:01:03;9.70;99.90
1083;DHT22;530;51.448;7.238;2024-02-21T08:03:28;9.80;99.90
1083;DHT22;530;51.448;7.238;2024-02-21T08:05:54;9.80;99.90
1083;DHT22;530;51.448;7.238;2024-02-21T08:08:20;9.80;99.90
1083;DHT22;530;51.448;7.238;2024-02-21T08:10:50;9.80;99.90
1083;DHT22;530;51.448;7.238;2024-02-21T08:13:16;9.80;99.90
1083;DHT22;530;51.448;7.238;2024-02-21T08:15:42;9.80;99.90
1083;DHT22;530;51.448;7.238;2024-02-21T08:18:08;9.80;99.90
1083;DHT22;530;51.448;7.238;2024-02-21T08:20:34;9.80;99.90
1083;DHT22;530;51.448;7.238;2024-02-21T08:23:00;9.80;99.90
1083;DHT22;530;51.448;7.238;2024-02-21T08:25:26;9.80;99.90
1083;DHT22;530;51.448;7.238;2024-02-21T08:27:56;9.90;99.90
1083;DHT22;530;51.448;7.238;2024-02-21T08:30:22;9.90;99.90
1083;DHT22;530;51.448;7.238;2024-02-21T08:32:48;9.90;99.90
1083;DHT22;530;51.448;7.238;2024-02-21T08:35:14;9.80;99.90
1083;DHT22;530;51.448;7.238;2024-02-21T08:37:40;9.80;99.90
1083;DHT22;530;51.448;7.238;2024-02-21T08:40:06;9.80;99.90
1083;DHT22;530;51.448;7.238;2024-02-21T08:42:38;9.90;99.90
1083;DHT22;530;51.448;7.238;2024-02-21T08:45:04;9.90;99.90
1083;DHT22;530;51.448;7.238;2024-02-21T08:47:30;9.90;99.90
1083;DHT22;530;51.448;7.238;2024-02-21T08:49:56;9.90;99.90
1083;DHT22;530;51.448;7.238;2024-02-21T08:52:22;9.90;99.90
1083;DHT22;530;51.448;7.238;2024-02-21T08:54:47;9.90;99.90
1083;DHT22;530;51.448;7.238;2024-02-21T08:57:13;9.90;99.90
1083;DHT22;530;51.448;7.238;2024-02-21T08:59:39;9.80;99.90
1083;DHT22;530;51.448;7.238;2024-02-21T09:02:05;9.70;99.90
1083;DHT22;530;51.448;7.238;2024-02-21T09:04:32;9.70;99.90
1083;DHT22;530;51.448;7.238;2024-02-21T09:06:59;9.70;99.90
1083;DHT22;530;51.448;7.238;2024-02-21T09:09:25;9.70;99.90
1083;DHT22;530;51.448;7.238;2024-02-21T09:11:50;9.80;99.90
1083;DHT22;530;51.448;7.238;2024-02-21T09:14:16;9.70;99.90
1083;DHT22;530;51.448;7.238;2024-02-21T09:16:42;9.70;99.90
1083;DHT22;530;51.448;7.238;2024-02-21T09:19:08;9.80;99.90
1083;DHT22;530;51.448;7.238;2024-02-21T09:21:37;9.70;99.90
1083;DHT22;530;51.448;7.238;2024-02-21T09:24:03;9.80;99.90
1083;DHT22;530;51.448;7.238;2024-02-21T09:26:28;9.80;99.90
1083;DHT22;530;51.448;7.238;2024-02-21T09:28:54;9.80;99.90
1083;DHT22;530;51.448;7.238;2024-02-21T09:31:20;9.80;99.90
1083;DHT22;530;51.448;7.238;2024-02-21T09:33:45;9.80;99.90
1083;DHT22;530;51.448;7.238;2024-02-21T09:36:11;9.90;99.90
1083;DHT22;530;51.448;7.238;2024-02-21T09:38:37;9.90;99.90
1083;DHT22;530;51.448;7.238;2024-02-21T09:43:38;9.90;99.90
1083;DHT22;530;51.448;7.238;2024-02-21T09:46:05;9.90;99.90
1083;DHT22;530;51.448;7.238;2024-02-21T09:51:01;9.80;99.90
1083;DHT22;530;51.448;7.238;2024-02-21T09:53:28;9.80;99.90
1083;DHT22;530;51.448;7.238;2024-02-21T09:55:55;9.80;99.90
1083;DHT22;530;51.448;7.238;2024-02-21T09:58:21;9.90;99.90
1083;DHT22;530;51.448;7.238;2024-02-21T10:00:47;9.80;99.90
1083;DHT22;530;51.448;7.238;2024-02-21T10:03:13;9.80;99.90
1083;DHT22;530;51.448;7.238;2024-02-21T10:05:47;9.80;99.90
1083;DHT22;530;51.448;7.238;2024-02-21T10:08:17;9.80;99.90
1083;DHT22;530;51.448;7.238;2024-02-21T10:10:44;9.80;99.90
1083;DHT22;530;51.448;7.238;2024-02-21T10:13:10;9.80;99.90
1083;DHT22;530;51.448;7.238;2024-02-21T10:15:37;9.80;99.90
1083;DHT22;530;51.448;7.238;2024-02-21T10:18:03;9.80;99.90
1083;DHT22;530;51.448;7.238;2024-02-21T10:20:29;9.80;99.90
1083;DHT22;530;51.448;7.238;2024-02-21T10:23:05;9.80;99.90
1083;DHT22;530;51.448;7.238;2024-02-21T10:25:37;9.80;99.90
1083;DHT22;530;51.448;7.238;2024-02-21T10:28:15;9.80;99.90
1083;DHT22;530;51.448;7.238;2024-02-21T10:30:51;9.80;99.90
1083;DHT22;530;51.448;7.238;2024-02-21T10:33:20;9.70;99.90
1083;DHT22;530;51.448;7.238;2024-02-21T10:35:47;9.80;99.90
1083;DHT22;530;51.448;7.238;2024-02-21T10:38:13;9.70;99.90
1083;DHT22;530;51.448;7.238;2024-02-21T10:40:38;9.80;99.90
1083;DHT22;530;51.448;7.238;2024-02-21T10:43:05;9.80;99.90
1083;DHT22;530;51.448;7.238;2024-02-21T10:45:36;9.90;99.90
1083;DHT22;530;51.448;7.238;2024-02-21T10:48:11;9.90;99.90
1083;DHT22;530;51.448;7.238;2024-02-21T10:50:56;10.00;99.90
1083;DHT22;530;51.448;7.238;2024-02-21T10:56:29;10.10;99.90
1083;DHT22;530;51.448;7.238;2024-02-21T10:59:07;10.10;99.90
1083;DHT22;530;51.448;7.238;2024-02-21T11:01:33;10.10;99.90
1083;DHT22;530;51.448;7.238;2024-02-21T11:04:11;10.10;99.90
1083;DHT22;530;51.448;7.238;2024-02-21T11:06:39;10.10;99.90
1083;DHT22;530;51.448;7.238;2024-02-21T11:09:10;10.10;99.90
1083;DHT22;530;51.448;7.238;2024-02-21T11:11:37;10.20;99.90
1083;DHT22;530;51.448;7.238;2024-02-21T11:14:11;10.10;99.90
1083;DHT22;530;51.448;7.238;2024-02-21T11:16:43;10.20;99.90
1083;DHT22;530;51.448;7.238;2024-02-21T11:19:18;10.20;99.90
1083;DHT22;530;51.448;7.238;2024-02-21T11:21:45;10.20;99.90
1083;DHT22;530;51.448;7.238;2024-02-21T11:24:11;10.20;99.90
1083;DHT22;530;51.448;7.238;2024-02-21T11:26:40;10.30;99.90
1083;DHT22;530;51.448;7.238;2024-02-21T11:29:09;10.30;99.90
1083;DHT22;530;51.448;7.238;2024-02-21T11:31:44;10.30;99.90
1083;DHT22;530;51.448;7.238;2024-02-21T11:34:17;10.30;99.90
1083;DHT22;530;51.448;7.238;2024-02-21T11:36:49;10.30;99.90
1083;DHT22;530;51.448;7.238;2024-02-21T11:41:47;10.40;99.90
1083;DHT22;530;51.448;7.238;2024-02-21T11:44:13;10.50;99.90
1083;DHT22;530;51.448;7.238;2024-02-21T11:46:39;10.50;99.90
1083;DHT22;530;51.448;7.238;2024-02-21T11:49:05;10.50;99.90
1083;DHT22;530;51.448;7.238;2024-02-21T11:51:31;10.50;99.90
1083;DHT22;530;51.448;7.238;2024-02-21T11:53:57;10.60;99.90
1083;DHT22;530;51.448;7.238;2024-02-21T11:56:23;10.70;99.90
1083;DHT22;530;51.448;7.238;2024-02-21T11:58:49;10.70;99.90
1083;DHT22;530;51.448;7.238;2024-02-21T12:01:14;10.80;99.90
1083;DHT22;530;51.448;7.238;2024-02-21T12:03:42;10.70;99.90
1083;DHT22;530;51.448;7.238;2024-02-21T12:06:07;10.80;99.90
1083;DHT22;530;51.448;7.238;2024-02-21T12:08:43;10.70;99.90
1083;DHT22;530;51.448;7.238;2024-02-21T12:11:19;10.70;99.90
1083;DHT22;530;51.448;7.238;2024-02-21T12:13:46;10.60;99.90
1083;DHT22;530;51.448;7.238;2024-02-21T12:16:15;10.50;99.90
1083;DHT22;530;51.448;7.238;2024-02-21T12:18:42;10.50;99.90
1083;DHT22;530;51.448;7.238;2024-02-21T12:21:07;10.50;99.90
1083;DHT22;530;51.448;7.238;2024-02-21T12:23:38;10.40;99.90
1083;DHT22;530;51.448;7.238;2024-02-21T12:26:03;10.40;99.90
1083;DHT22;530;51.448;7.238;2024-02-21T12:28:30;10.50;99.90
1083;DHT22;530;51.448;7.238;2024-02-21T12:30:56;10.50;99.90
1083;DHT22;530;51.448;7.238;2024-02-21T12:33:22;10.50;99.90
1083;DHT22;530;51.448;7.238;2024-02-21T12:35:47;10.40;99.90
1083;DHT22;530;51.448;7.238;2024-02-21T12:38:14;10.40;99.90
1083;DHT22;530;51.448;7.238;2024-02-21T12:40:40;10.50;99.90
1083;DHT22;530;51.448;7.238;2024-02-21T12:43:06;10.40;99.90
1083;DHT22;530;51.448;7.238;2024-02-21T12:45:32;10.30;99.90
1083;DHT22;530;51.448;7.238;2024-02-21T12:47:59;10.30;99.90
1083;DHT22;530;51.448;7.238;2024-02-21T12:50:24;10.40;99.90
1083;DHT22;530;51.448;7.238;2024-02-21T12:52:51;10.40;99.90
1083;DHT22;530;51.448;7.238;2024-02-21T12:55:17;10.40;99.90
1083;DHT22;530;51.448;7.238;2024-02-21T12:57:42;10.50;99.90
1083;DHT22;530;51.448;7.238;2024-02-21T13:00:08;10.50;99.90
1083;DHT22;530;51.448;7.238;2024-02-21T13:02:35;10.50;99.90
1083;DHT22;530;51.448;7.238;2024-02-21T13:05:01;10.70;99.90
1083;DHT22;530;51.448;7.238;2024-02-21T13:07:31;10.70;99.90
1083;DHT22;530;51.448;7.238;2024-02-21T13:09:57;10.90;99.90
1083;DHT22;530;51.448;7.238;2024-02-21T13:12:24;11.00;99.90
1083;DHT22;530;51.448;7.238;2024-02-21T13:14:51;11.10;99.90
1083;DHT22;530;51.448;7.238;2024-02-21T13:17:17;11.20;99.90
1083;DHT22;530;51.448;7.238;2024-02-21T13:19:43;11.20;99.90
1083;DHT22;530;51.448;7.238;2024-02-21T13:22:09;11.20;99.90
1083;DHT22;530;51.448;7.238;2024-02-21T13:24:35;11.30;99.90
1083;DHT22;530;51.448;7.238;2024-02-21T13:27:01;11.20;99.90
1083;DHT22;530;51.448;7.238;2024-02-21T13:29:28;11.20;99.90
1083;DHT22;530;51.448;7.238;2024-02-21T13:31:54;11.20;99.90
1083;DHT22;530;51.448;7.238;2024-02-21T13:34:20;11.20;99.90
1083;DHT22;530;51.448;7.238;2024-02-21T13:36:45;11.20;99.90
1083;DHT22;530;51.448;7.238;2024-02-21T13:39:11;11.20;99.90
1083;DHT22;530;51.448;7.238;2024-02-21T13:41:41;11.20;99.90
1083;DHT22;530;51.448;7.238;2024-02-21T13:44:07;11.30;99.90
1083;DHT22;530;51.448;7.238;2024-02-21T13:46:34;11.30;99.90
1083;DHT22;530;51.448;7.238;2024-02-21T13:49:05;11.30;99.90
1083;DHT22;530;51.448;7.238;2024-02-21T13:51:33;11.30;99.90
1083;DHT22;530;51.448;7.238;2024-02-21T13:54:02;11.40;99.90
1083;DHT22;530;51.448;7.238;2024-02-21T13:56:28;11.40;99.90
1083;DHT22;530;51.448;7.238;2024-02-21T13:58:54;11.40;99.90
1083;DHT22;530;51.448;7.238;2024-02-21T14:01:20;11.40;99.90
1083;DHT22;530;51.448;7.238;2024-02-21T14:03:46;11.40;99.90
1083;DHT22;530;51.448;7.238;2024-02-21T14:06:12;11.30;99.90
1083;DHT22;530;51.448;7.238;2024-02-21T14:08:38;11.30;99.90
1083;DHT22;530;51.448;7.238;2024-02-21T14:11:06;11.30;99.90
1083;DHT22;530;51.448;7.238;2024-02-21T14:13:32;11.20;99.90
1083;DHT22;530;51.448;7.238;2024-02-21T14:15:57;11.20;99.90
1083;DHT22;530;51.448;7.238;2024-02-21T14:18:23;11.20;99.90
1083;DHT22;530;51.448;7.238;2024-02-21T14:20:49;11.20;99.90
1083;DHT22;530;51.448;7.238;2024-02-21T14:23:14;11.20;99.90
1083;DHT22;530;51.448;7.238;2024-02-21T14:25:40;11.10;99.90
1083;DHT22;530;51.448;7.238;2024-02-21T14:28:08;11.00;99.90
1083;DHT22;530;51.448;7.238;2024-02-21T14:30:35;11.10;99.90
1083;DHT22;530;51.448;7.238;2024-02-21T14:33:00;11.10;99.90
1083;DHT22;530;51.448;7.238;2024-02-21T14:35:26;11.10;99.90
1083;DHT22;530;51.448;7.238;2024-02-21T14:37:52;11.10;99.90
1083;DHT22;530;51.448;7.238;2024-02-21T14:40:21;11.10;99.90
1083;DHT22;530;51.448;7.238;2024-02-21T14:42:46;11.20;99.90
1083;DHT22;530;51.448;7.238;2024-02-21T14:45:12;11.20;99.90
1083;DHT22;530;51.448;7.238;2024-02-21T14:47:39;11.20;99.90
1083;DHT22;530;51.448;7.238;2024-02-21T14:50:05;11.10;99.90
1083;DHT22;530;51.448;7.238;2024-02-21T14:52:32;11.10;99.90
1083;DHT22;530;51.448;7.238;2024-02-21T14:54:58;11.20;99.90
1083;DHT22;530;51.448;7.238;2024-02-21T14:57:25;11.20;99.90
1083;DHT22;530;51.448;7.238;2024-02-21T14:59:50;11.20;99.90
1083;DHT22;530;51.448;7.238;2024-02-21T15:02:22;11.20;99.90
1083;DHT22;530;51.448;7.238;2024-02-21T15:04:48;11.20;99.90
1083;DHT22;530;51.448;7.238;2024-02-21T15:07:14;11.30;99.90
1083;DHT22;530;51.448;7.238;2024-02-21T15:09:39;11.20;99.90
1083;DHT22;530;51.448;7.238;2024-02-21T15:12:05;11.20;99.90
1083;DHT22;530;51.448;7.238;2024-02-21T15:14:31;11.20;99.90
1083;DHT22;530;51.448;7.238;2024-02-21T15:16:57;11.10;99.90
1083;DHT22;530;51.448;7.238;2024-02-21T15:19:23;10.90;99.90
1083;DHT22;530;51.448;7.238;2024-02-21T15:21:49;11.00;99.90
1083;DHT22;530;51.448;7.238;2024-02-21T15:24:15;11.00;99.90
1083;DHT22;530;51.448;7.238;2024-02-21T15:26:42;11.00;99.90
1083;DHT22;530;51.448;7.238;2024-02-21T15:29:08;11.00;99.90
1083;DHT22;530;51.448;7.238;2024-02-21T15:31:34;10.90;99.90
1083;DHT22;530;51.448;7.238;2024-02-21T15:34:00;10.90;99.90
1083;DHT22;530;51.448;7.238;2024-02-21T15:36:26;11.00;99.90
1083;DHT22;530;51.448;7.238;2024-02-21T15:38:53;11.00;99.90
1083;DHT22;530;51.448;7.238;2024-02-21T15:41:20;10.90;99.90
1083;DHT22;530;51.448;7.238;2024-02-21T15:43:47;10.90;99.90
1083;DHT22;530;51.448;7.238;2024-02-21T15:46:12;10.90;99.90
1083;DHT22;530;51.448;7.238;2024-02-21T15:48:38;10.90;99.90
1083;DHT22;530;51.448;7.238;2024-02-21T15:51:06;10.90;99.90
1083;DHT22;530;51.448;7.238;2024-02-21T15:53:32;10.90;99.90
1083;DHT22;530;51.448;7.238;2024-02-21T15:55:57;10.80;99.90
1083;DHT22;530;51.448;7.238;2024-02-21T15:58:23;10.80;99.90
1083;DHT22;530;51.448;7.238;2024-02-21T16:00:50;10.80;99.90
1083;DHT22;530;51.448;7.238;2024-02-21T16:03:15;10.90;99.90
1083;DHT22;530;51.448;7.238;2024-02-21T16:05:41;10.90;99.90
1083;DHT22;530;51.448;7.238;2024-02-21T16:08:07;10.90;99.90
1083;DHT22;530;51.448;7.238;2024-02-21T16:10:33;10.80;99.90
1083;DHT22;530;51.448;7.238;2024-02-21T16:12:59;10.80;99.90
1083;DHT22;530;51.448;7.238;2024-02-21T16:15:25;10.90;99.90
1083;DHT22;530;51.448;7.238;2024-02-21T16:17:51;10.70;99.90
1083;DHT22;530;51.448;7.238;2024-02-21T16:20:17;10.80;99.90
1083;DHT22;530;51.448;7.238;2024-02-21T16:22:43;10.80;99.90
1083;DHT22;530;51.448;7.238;2024-02-21T16:25:09;10.80;99.90
1083;DHT22;530;51.448;7.238;2024-02-21T16:27:35;10.80;99.90
1083;DHT22;530;51.448;7.238;2024-02-21T16:30:01;10.80;99.90
1083;DHT22;530;51.448;7.238;2024-02-21T16:32:26;10.80;99.90
1083;DHT22;530;51.448;7.238;2024-02-21T16:34:53;10.70;99.90